Time;durP1;ratioP1;P1;durP2;ratioP2;P2;SDS_P1;SDS_P2;PMS_P1;PMS_P2;Temp;Humidity;BMP_temperature;BMP_pressure;BME280_temperature;BME280_humidity;BME280_pressure;Samples;Min_cycle;Max_cycle;Signal;HPM_P1;HPM_P2
2023/07/27 00:01:14;;;;;;;7.53;3.77;;;13.70;63.40;;;;;;5070818;28;20534;-67
2023/07/27 00:03:41;;;;;;;5.13;3.73;;;13.80;63.00;;;;;;5070459;28;20192;-65
2023/07/27 00:06:08;;;;;;;7.53;4.50;;;13.80;62.40;;;;;;5069957;28;20633;-65
2023/07/27 00:08:36;;;;;;;6.50;4.93;;;13.80;62.60;;;;;;5070563;28;20197;-65
2023/07/27 00:11:03;;;;;;;8.73;5.03;;;13.90;62.80;;;;;;5069538;28;20179;-65
2023/07/27 00:13:30;;;;;;;8.87;5.27;;;14.10;63.40;;;;;;5070744;28;20179;-64
2023/07/27 00:15:58;;;;;;;8.47;5.50;;;14.20;62.90;;;;;;5071262;28;20184;-65
2023/07/27 00:18:25;;;;;;;7.17;5.27;;;14.30;62.30;;;;;;5070915;28;20175;-65
2023/07/27 00:20:52;;;;;;;13.93;5.50;;;14.30;62.40;;;;;;5070782;28;20229;-66
2023/07/27 00:23:19;;;;;;;7.80;5.43;;;14.40;62.50;;;;;;5070986;28;20191;-65
2023/07/27 00:25:47;;;;;;;16.47;5.27;;;14.60;62.60;;;;;;5069608;28;20210;-64
2023/07/27 00:28:14;;;;;;;10.43;5.33;;;14.70;62.20;;;;;;5070908;28;20278;-66
2023/07/27 00:30:41;;;;;;;9.70;5.30;;;14.80;62.70;;;;;;5067238;28;20179;-65
2023/07/27 00:33:09;;;;;;;9.77;5.67;;;14.90;61.70;;;;;;5070549;28;20704;-67
2023/07/27 00:35:37;;;;;;;11.17;5.73;;;14.80;61.40;;;;;;5070700;28;20547;-65
2023/07/27 00:38:04;;;;;;;6.57;5.87;;;15.00;61.90;;;;;;5070469;28;20214;-65
2023/07/27 00:40:32;;;;;;;8.93;5.63;;;15.10;61.80;;;;;;5073166;28;20263;-65
2023/07/27 00:42:59;;;;;;;7.90;6.07;;;15.20;61.10;;;;;;5074045;28;20211;-64
2023/07/27 00:45:27;;;;;;;6.97;5.90;;;15.30;61.20;;;;;;5074368;28;20183;-65
2023/07/27 00:47:54;;;;;;;10.40;6.00;;;15.30;61.20;;;;;;5074537;28;20183;-67
2023/07/27 00:50:21;;;;;;;8.77;6.27;;;15.50;60.90;;;;;;5074124;28;20194;-66
2023/07/27 00:52:49;;;;;;;9.20;5.97;;;15.60;60.50;;;;;;5074327;28;20207;-69
2023/07/27 00:55:16;;;;;;;7.60;5.90;;;15.60;60.30;;;;;;5073808;28;20179;-65
2023/07/27 00:57:44;;;;;;;18.93;6.13;;;15.70;60.50;;;;;;5074380;28;20183;-70
2023/07/27 01:00:13;;;;;;;9.50;6.43;;;15.80;61.00;;;;;;5073945;28;20184;-65
2023/07/27 01:02:41;;;;;;;9.50;6.17;;;15.90;61.10;;;;;;5089188;28;20278;-68
2023/07/27 01:05:08;;;;;;;9.60;5.97;;;16.00;60.30;;;;;;5073201;28;20215;-67
2023/07/27 01:07:36;;;;;;;9.30;6.67;;;16.10;61.00;;;;;;5073823;28;20188;-70
2023/07/27 01:10:03;;;;;;;10.00;6.07;;;16.20;60.70;;;;;;5071094;28;20180;-66
2023/07/27 01:12:50;;;;;;;11.93;6.17;;;16.30;60.50;;;;;;5071686;28;20221;-71
2023/07/27 01:15:22;;;;;;;15.03;9.07;;;16.50;60.60;;;;;;5073798;28;20544;-70
2023/07/27 01:17:56;;;;;;;9.73;5.97;;;16.80;60.40;;;;;;5072340;28;20186;-65
2023/07/27 01:20:35;;;;;;;8.33;5.90;;;16.90;61.10;;;;;;5073784;28;20205;-66
2023/07/27 01:23:20;;;;;;;7.33;5.47;;;17.00;61.20;;;;;;5073460;28;20202;-71
2023/07/27 01:26:26;;;;;;;8.17;5.60;;;17.10;63.00;;;;;;5073850;28;20197;-66
2023/07/27 01:29:14;;;;;;;10.80;5.60;;;17.20;62.40;;;;;;5072282;28;20511;-72
2023/07/27 01:31:43;;;;;;;8.53;5.60;;;17.20;62.60;;;;;;5072524;28;20226;-64
2023/07/27 01:34:31;;;;;;;8.23;5.40;;;17.30;63.20;;;;;;5073256;28;20221;-65
2023/07/27 01:37:05;;;;;;;9.20;5.90;;;17.20;64.30;;;;;;5073361;28;20178;-65
2023/07/27 01:39:38;;;;;;;8.80;4.77;;;17.50;63.20;;;;;;5073988;28;20645;-65
2023/07/27 01:42:08;;;;;;;7.93;5.07;;;17.30;66.00;;;;;;5072013;28;20273;-65
2023/07/27 01:44:36;;;;;;;10.00;5.30;;;17.60;64.80;;;;;;5068244;28;20210;-65
2023/07/27 01:47:04;;;;;;;8.90;6.00;;;17.80;62.20;;;;;;5077123;28;20226;-65
2023/07/27 01:49:32;;;;;;;9.77;4.70;;;17.90;62.80;;;;;;5072260;28;20656;-65
2023/07/27 01:52:01;;;;;;;11.40;5.40;;;17.80;64.90;;;;;;5072587;28;20705;-65
2023/07/27 01:54:28;;;;;;;7.33;5.07;;;18.00;64.50;;;;;;5073049;28;20248;-65
2023/07/27 01:56:56;;;;;;;6.37;4.10;;;18.10;63.90;;;;;;5085417;28;20521;-67
2023/07/27 01:59:24;;;;;;;8.60;4.80;;;18.10;65.70;;;;;;5072496;28;20183;-65
2023/07/27 02:01:52;;;;;;;13.60;4.87;;;18.30;63.70;;;;;;5070813;28;20190;-66
2023/07/27 02:04:19;;;;;;;8.40;4.90;;;18.30;63.70;;;;;;5071883;28;20236;-65
2023/07/27 02:06:51;;;;;;;9.33;4.90;;;18.50;62.60;;;;;;5071704;28;20670;-65
2023/07/27 02:09:18;;;;;;;7.53;4.90;;;18.60;61.60;;;;;;5072885;28;20179;-65
2023/07/27 02:11:50;;;;;;;8.40;4.40;;;18.70;62.20;;;;;;5072291;28;20210;-70
2023/07/27 02:14:44;;;;;;;8.20;4.60;;;18.90;61.50;;;;;;5072889;28;20176;-64
2023/07/27 02:17:39;;;;;;;8.47;3.77;;;19.00;60.90;;;;;;5074505;28;20179;-63
2023/07/27 02:20:13;;;;;;;8.13;3.93;;;19.10;61.10;;;;;;5098904;28;20203;-64
2023/07/27 02:22:42;;;;;;;11.47;3.80;;;19.30;61.50;;;;;;5071402;28;20662;-64
2023/07/27 02:25:10;;;;;;;9.17;3.40;;;19.40;61.10;;;;;;5072417;28;20213;-67
2023/07/27 02:27:37;;;;;;;8.27;3.87;;;19.70;60.20;;;;;;5072570;28;20226;-64
2023/07/27 02:30:05;;;;;;;5.90;3.90;;;19.90;59.80;;;;;;5071948;28;20183;-66
2023/07/27 02:32:32;;;;;;;5.33;3.20;;;20.20;58.50;;;;;;5071896;28;20234;-64
2023/07/27 02:35:00;;;;;;;9.77;3.30;;;19.90;60.30;;;;;;5071808;28;20536;-64
2023/07/27 02:37:27;;;;;;;6.83;3.47;;;20.00;58.30;;;;;;5071256;28;20195;-64
2023/07/27 02:39:55;;;;;;;6.57;3.30;;;20.00;58.80;;;;;;5071879;28;20191;-66
2023/07/27 02:42:22;;;;;;;6.87;3.63;;;20.30;57.30;;;;;;5072138;28;20249;-64
2023/07/27 02:44:49;;;;;;;8.30;3.60;;;20.00;57.60;;;;;;5072315;28;20218;-65
2023/07/27 02:47:16;;;;;;;5.87;3.17;;;20.20;57.60;;;;;;5072078;28;20190;-64
2023/07/27 02:49:44;;;;;;;5.53;3.63;;;20.20;57.70;;;;;;5073594;28;20183;-64
2023/07/27 02:52:11;;;;;;;6.60;3.10;;;20.30;57.40;;;;;;5069083;28;20360;-64
2023/07/27 02:54:38;;;;;;;8.17;3.23;;;20.30;56.60;;;;;;5073793;28;20186;-64
2023/07/27 02:57:06;;;;;;;11.20;3.43;;;20.60;56.20;;;;;;5069978;28;20270;-65
2023/07/27 02:59:33;;;;;;;4.10;2.73;;;21.10;54.80;;;;;;5069766;28;20220;-65
2023/07/27 03:02:01;;;;;;;8.63;3.13;;;21.30;54.20;;;;;;5070955;28;20187;-65
2023/07/27 03:04:28;;;;;;;6.07;3.07;;;21.80;53.50;;;;;;5071595;28;20248;-65
2023/07/27 03:06:55;;;;;;;5.17;3.70;;;21.40;55.10;;;;;;5071546;28;20187;-64
2023/07/27 03:09:23;;;;;;;5.80;2.90;;;21.30;54.90;;;;;;5072435;28;20547;-65
2023/07/27 03:11:50;;;;;;;5.57;3.20;;;21.50;53.10;;;;;;5071192;28;20221;-64
2023/07/27 03:14:18;;;;;;;3.60;2.70;;;21.50;53.80;;;;;;5071659;28;20214;-64
2023/07/27 03:16:46;;;;;;;6.20;2.90;;;21.20;53.20;;;;;;5071817;28;20170;-64
2023/07/27 03:19:13;;;;;;;7.23;2.93;;;21.20;54.70;;;;;;5071423;28;20256;-64
2023/07/27 03:21:41;;;;;;;5.67;3.10;;;21.30;53.70;;;;;;5071480;28;20199;-63
2023/07/27 03:24:09;;;;;;;6.50;2.90;;;21.70;53.10;;;;;;5071676;28;20198;-64
2023/07/27 03:26:38;;;;;;;5.27;2.70;;;21.80;52.70;;;;;;5075932;28;20187;-64
2023/07/27 03:29:05;;;;;;;5.97;3.03;;;21.90;51.90;;;;;;5067554;28;20187;-63
2023/07/27 03:31:32;;;;;;;7.27;3.10;;;22.00;52.10;;;;;;5071383;28;20766;-65
2023/07/27 03:34:00;;;;;;;5.93;2.60;;;22.10;51.30;;;;;;5071117;28;20239;-64
2023/07/27 03:36:27;;;;;;;10.30;3.30;;;21.90;51.50;;;;;;5071148;28;20175;-65
2023/07/27 03:38:54;;;;;;;9.13;2.93;;;21.60;52.20;;;;;;5071419;28;20187;-70
2023/07/27 03:41:21;;;;;;;6.37;2.83;;;22.00;51.00;;;;;;5071938;28;20187;-64
2023/07/27 03:43:50;;;;;;;8.13;3.73;;;21.90;51.50;;;;;;5072917;28;20218;-67
2023/07/27 03:46:17;;;;;;;6.83;2.90;;;22.00;53.10;;;;;;5071480;28;20236;-64
2023/07/27 03:48:48;;;;;;;7.33;3.20;;;22.20;52.50;;;;;;5071899;28;20274;-65
2023/07/27 03:51:15;;;;;;;5.87;2.93;;;22.10;53.60;;;;;;5070541;28;20288;-69
2023/07/27 03:53:42;;;;;;;5.93;3.30;;;22.00;53.20;;;;;;5069727;28;20180;-72
2023/07/27 03:56:10;;;;;;;6.30;2.70;;;22.30;52.50;;;;;;5068488;28;20309;-67
2023/07/27 03:58:38;;;;;;;9.53;3.03;;;22.40;52.90;;;;;;5069892;28;20211;-65
2023/07/27 04:01:05;;;;;;;9.23;3.90;;;22.50;52.30;;;;;;5070178;28;20183;-68
2023/07/27 04:03:32;;;;;;;7.23;3.20;;;22.30;53.90;;;;;;5070098;28;20185;-67
2023/07/27 04:06:00;;;;;;;8.50;4.20;;;22.50;54.80;;;;;;5074089;28;20228;-68
2023/07/27 04:08:27;;;;;;;7.87;3.27;;;22.80;54.00;;;;;;5076822;28;20633;-65
2023/07/27 04:10:54;;;;;;;10.13;3.10;;;22.60;54.70;;;;;;5072116;28;20183;-64
2023/07/27 04:13:22;;;;;;;13.27;3.70;;;22.50;55.00;;;;;;5072029;28;20582;-65
2023/07/27 04:15:49;;;;;;;10.17;3.70;;;22.80;54.20;;;;;;5073981;28;20183;-65
2023/07/27 04:18:16;;;;;;;10.40;3.83;;;22.80;54.30;;;;;;5077449;28;20274;-70
2023/07/27 04:20:44;;;;;;;7.33;3.13;;;22.20;55.80;;;;;;5072026;28;20183;-65
2023/07/27 04:23:11;;;;;;;9.77;3.37;;;22.80;54.80;;;;;;5070385;28;20183;-66
2023/07/27 04:25:38;;;;;;;7.13;3.57;;;23.10;54.50;;;;;;5071126;28;20266;-64
2023/07/27 04:28:06;;;;;;;8.57;3.37;;;23.30;53.50;;;;;;5072257;28;20179;-67
2023/07/27 04:30:33;;;;;;;8.57;3.20;;;23.10;54.70;;;;;;5072909;28;20237;-66
2023/07/27 04:33:00;;;;;;;8.80;3.20;;;23.20;54.00;;;;;;5071752;28;21399;-66
2023/07/27 04:35:28;;;;;;;6.37;3.00;;;23.60;53.00;;;;;;5071722;28;20950;-66
2023/07/27 04:37:55;;;;;;;6.57;3.13;;;23.70;53.10;;;;;;5072772;28;20219;-65
2023/07/27 04:40:22;;;;;;;10.07;3.20;;;23.50;54.20;;;;;;5070171;28;20312;-65
2023/07/27 04:42:50;;;;;;;11.23;3.47;;;23.70;52.50;;;;;;5072280;28;20186;-63
2023/07/27 04:45:17;;;;;;;9.80;3.70;;;23.20;53.40;;;;;;5074042;28;20225;-65
2023/07/27 04:47:44;;;;;;;10.83;3.73;;;23.30;54.20;;;;;;5073903;28;20201;-64
2023/07/27 04:50:12;;;;;;;7.17;3.30;;;23.10;55.20;;;;;;5076410;28;20203;-64
2023/07/27 04:52:39;;;;;;;11.47;3.57;;;23.70;53.10;;;;;;5071486;28;20215;-65
2023/07/27 04:55:07;;;;;;;7.63;3.53;;;23.60;53.90;;;;;;5070872;28;20627;-64
2023/07/27 04:57:34;;;;;;;8.80;4.07;;;23.80;52.60;;;;;;5070409;28;20185;-63
2023/07/27 05:00:02;;;;;;;9.60;3.67;;;23.50;53.60;;;;;;5071503;28;20262;-64
2023/07/27 05:02:29;;;;;;;9.37;4.00;;;23.60;53.90;;;;;;5071499;28;20179;-63
2023/07/27 05:04:57;;;;;;;13.53;4.30;;;24.00;52.40;;;;;;5070914;28;20237;-64
2023/07/27 05:07:24;;;;;;;12.67;4.30;;;24.10;52.70;;;;;;5070383;28;20244;-65
2023/07/27 05:09:51;;;;;;;13.20;4.27;;;23.60;53.70;;;;;;5071954;28;20171;-68
2023/07/27 05:12:20;;;;;;;10.00;4.57;;;23.60;54.50;;;;;;5072092;28;20265;-64
2023/07/27 05:14:47;;;;;;;14.00;4.33;;;22.90;56.30;;;;;;5072755;28;20229;-65
2023/07/27 05:17:15;;;;;;;7.10;3.97;;;23.30;56.50;;;;;;5072889;28;20228;-64
2023/07/27 05:19:42;;;;;;;10.70;4.77;;;23.70;54.20;;;;;;5071580;28;20179;-65
2023/07/27 05:22:09;;;;;;;11.87;3.97;;;24.00;54.70;;;;;;5070617;28;20248;-65
2023/07/27 05:24:37;;;;;;;7.03;4.13;;;23.50;54.80;;;;;;5071510;28;20274;-66
2023/07/27 05:27:05;;;;;;;7.97;3.37;;;23.90;53.60;;;;;;5072687;28;20184;-64
2023/07/27 05:29:32;;;;;;;9.63;3.97;;;23.80;54.10;;;;;;5071301;28;20198;-64
2023/07/27 05:32:00;;;;;;;8.33;3.67;;;24.10;53.80;;;;;;5072060;28;20227;-64
2023/07/27 05:34:27;;;;;;;9.97;3.63;;;23.40;55.10;;;;;;5071965;28;20175;-63
2023/07/27 05:36:54;;;;;;;8.37;3.73;;;23.30;55.60;;;;;;5069227;28;21689;-67
2023/07/27 05:39:22;;;;;;;15.00;4.13;;;23.10;57.30;;;;;;5072241;28;20214;-65
2023/07/27 05:41:49;;;;;;;10.33;4.17;;;23.30;55.80;;;;;;5085730;28;20180;-64
2023/07/27 05:44:17;;;;;;;10.57;4.03;;;23.50;57.00;;;;;;5072057;28;20183;-65
2023/07/27 05:46:44;;;;;;;12.07;4.20;;;23.80;55.30;;;;;;5071535;28;20190;-64
2023/07/27 05:49:11;;;;;;;8.10;4.23;;;23.60;56.50;;;;;;5070357;28;20237;-64
2023/07/27 05:51:39;;;;;;;12.13;4.43;;;23.40;56.50;;;;;;5071130;28;20581;-69
2023/07/27 05:54:06;;;;;;;13.23;4.50;;;23.60;56.10;;;;;;5071545;28;20191;-69
2023/07/27 05:56:33;;;;;;;12.00;4.30;;;23.40;57.40;;;;;;5072351;28;20187;-68
2023/07/27 05:59:01;;;;;;;12.37;4.93;;;23.80;56.50;;;;;;5072769;28;20202;-67
2023/07/27 06:01:28;;;;;;;14.80;4.67;;;23.90;55.30;;;;;;5072351;28;20668;-67
2023/07/27 06:03:56;;;;;;;10.83;4.47;;;23.70;55.90;;;;;;5073749;28;20187;-65
2023/07/27 06:06:23;;;;;;;11.97;4.23;;;23.10;58.30;;;;;;5072944;28;20604;-70
2023/07/27 06:08:51;;;;;;;10.20;4.60;;;23.40;57.80;;;;;;5070853;28;20186;-68
2023/07/27 06:11:18;;;;;;;11.53;4.17;;;23.40;56.80;;;;;;5071291;28;20183;-66
2023/07/27 06:13:46;;;;;;;7.17;4.50;;;23.00;57.90;;;;;;5068588;28;20557;-70
2023/07/27 06:16:15;;;;;;;10.43;4.23;;;22.50;59.00;;;;;;5065568;28;20183;-70
2023/07/27 06:18:42;;;;;;;10.33;4.80;;;21.40;62.50;;;;;;5064541;28;20266;-66
2023/07/27 06:21:09;;;;;;;11.83;4.60;;;20.80;64.80;;;;;;5069468;28;20561;-65
2023/07/27 06:23:37;;;;;;;11.30;4.03;;;20.30;67.20;;;;;;5070042;28;20303;-64
2023/07/27 06:26:04;;;;;;;14.67;4.80;;;20.10;67.40;;;;;;5071469;28;20183;-69
2023/07/27 06:28:31;;;;;;;6.97;4.43;;;19.90;68.30;;;;;;5071759;28;20282;-72
2023/07/27 06:31:01;;;;;;;10.33;4.47;;;19.50;69.50;;;;;;5070587;28;20235;-65
2023/07/27 06:33:28;;;;;;;12.33;5.23;;;19.30;70.30;;;;;;5070918;28;20218;-65
2023/07/27 06:35:57;;;;;;;10.73;4.70;;;19.20;70.70;;;;;;5068522;28;20180;-64
2023/07/27 06:38:24;;;;;;;19.57;5.10;;;19.00;71.10;;;;;;5069053;28;20687;-65
2023/07/27 06:40:51;;;;;;;12.70;5.17;;;18.80;71.50;;;;;;5069229;28;20317;-66
2023/07/27 06:43:19;;;;;;;14.23;4.80;;;18.70;72.40;;;;;;5073263;28;20175;-64
2023/07/27 06:45:46;;;;;;;10.40;4.60;;;18.50;73.20;;;;;;5072748;28;20183;-65
2023/07/27 06:48:13;;;;;;;10.53;4.63;;;18.50;73.20;;;;;;5067777;28;20194;-65
2023/07/27 06:50:41;;;;;;;11.10;4.90;;;18.30;73.40;;;;;;5069238;28;20556;-65
2023/07/27 06:53:08;;;;;;;10.57;5.20;;;18.20;73.90;;;;;;5070575;28;20222;-65
2023/07/27 06:55:36;;;;;;;11.83;5.20;;;18.10;74.10;;;;;;5069641;28;20172;-65
2023/07/27 06:58:03;;;;;;;14.03;4.87;;;18.00;74.50;;;;;;5069604;28;20194;-64
2023/07/27 07:00:33;;;;;;;13.00;5.23;;;17.90;74.70;;;;;;5068938;28;20333;-65
2023/07/27 07:03:01;;;;;;;9.33;5.07;;;17.80;75.00;;;;;;5070215;28;20179;-65
2023/07/27 07:05:28;;;;;;;13.50;5.80;;;17.80;75.40;;;;;;5071668;28;20668;-64
2023/07/27 07:07:56;;;;;;;11.63;5.40;;;17.70;75.80;;;;;;5071543;28;20263;-65
2023/07/27 07:10:23;;;;;;;14.60;5.93;;;17.50;76.30;;;;;;5070646;28;20186;-65
2023/07/27 07:12:50;;;;;;;12.30;6.13;;;17.50;76.80;;;;;;5067770;28;20267;-70
2023/07/27 07:15:18;;;;;;;12.10;5.50;;;17.40;77.30;;;;;;5069169;28;20251;-64
2023/07/27 07:17:45;;;;;;;17.33;6.00;;;17.30;77.70;;;;;;5070718;28;20172;-64
2023/07/27 07:20:14;;;;;;;15.33;6.73;;;17.30;78.10;;;;;;5069656;28;20198;-64
2023/07/27 07:22:41;;;;;;;12.20;5.57;;;17.20;78.60;;;;;;5068375;28;20644;-64
2023/07/27 07:25:08;;;;;;;12.33;6.10;;;17.10;79.00;;;;;;5071050;28;20532;-64
2023/07/27 07:27:36;;;;;;;15.73;6.37;;;17.00;79.50;;;;;;5067517;28;20190;-64
2023/07/27 07:30:04;;;;;;;14.27;6.30;;;17.00;79.80;;;;;;5070793;28;20529;-65
2023/07/27 07:32:33;;;;;;;10.70;6.20;;;17.00;80.00;;;;;;5073505;28;20284;-65
2023/07/27 07:35:01;;;;;;;15.10;5.60;;;16.90;80.20;;;;;;5071394;28;20523;-67
2023/07/27 07:37:28;;;;;;;13.50;6.20;;;16.80;80.70;;;;;;5070868;28;20189;-70
2023/07/27 07:39:55;;;;;;;16.80;6.50;;;16.80;81.00;;;;;;5067799;28;20516;-70
2023/07/27 07:42:23;;;;;;;14.83;6.50;;;16.70;81.20;;;;;;5069460;28;20183;-65
2023/07/27 07:44:50;;;;;;;13.13;6.10;;;16.70;81.50;;;;;;5069409;28;20186;-70
2023/07/27 07:47:17;;;;;;;14.93;7.07;;;16.70;81.70;;;;;;5065023;28;20183;-66
2023/07/27 07:49:45;;;;;;;22.13;7.53;;;16.60;81.80;;;;;;5076927;28;20194;-72
2023/07/27 07:52:13;;;;;;;16.90;8.13;;;16.60;82.00;;;;;;5073470;28;20254;-68
2023/07/27 07:54:40;;;;;;;10.70;7.60;;;16.60;82.20;;;;;;5076623;28;20220;-69
2023/07/27 07:57:08;;;;;;;13.17;7.73;;;16.50;82.40;;;;;;5076689;28;20225;-64
2023/07/27 07:59:35;;;;;;;12.07;7.67;;;16.50;82.50;;;;;;5073408;28;20186;-65
2023/07/27 08:02:02;;;;;;;16.23;8.23;;;16.40;82.50;;;;;;5072916;28;20181;-64
2023/07/27 08:04:30;;;;;;;14.10;7.83;;;16.50;82.60;;;;;;5070380;28;20182;-68
2023/07/27 08:06:58;;;;;;;12.67;7.13;;;16.40;82.60;;;;;;5074882;28;20652;-64
2023/07/27 08:09:25;;;;;;;14.40;7.43;;;16.30;82.50;;;;;;5072040;28;20182;-65
2023/07/27 08:11:53;;;;;;;14.47;7.97;;;16.30;82.60;;;;;;5072861;28;20688;-64
2023/07/27 08:14:24;;;;;;;11.03;7.80;;;16.30;82.30;;;;;;5072243;28;20270;-65
2023/07/27 08:16:51;;;;;;;11.80;7.40;;;16.30;82.30;;;;;;5073778;28;20198;-73
2023/07/27 08:19:19;;;;;;;18.67;7.20;;;16.30;82.20;;;;;;5068675;28;20214;-73
2023/07/27 08:21:46;;;;;;;17.37;8.10;;;16.30;82.10;;;;;;5076498;28;20189;-65
2023/07/27 08:24:13;;;;;;;9.27;6.87;;;16.30;82.10;;;;;;5073482;28;20276;-70
2023/07/27 08:26:41;;;;;;;12.30;7.53;;;16.20;82.10;;;;;;5073508;28;20195;-71
2023/07/27 08:29:08;;;;;;;14.43;7.97;;;16.20;82.10;;;;;;5070689;28;20562;-64
2023/07/27 08:31:37;;;;;;;15.80;7.33;;;16.20;82.10;;;;;;5077133;28;20601;-70
2023/07/27 08:34:04;;;;;;;15.70;8.30;;;16.20;82.00;;;;;;5075279;28;20367;-65
2023/07/27 08:36:32;;;;;;;16.63;10.67;;;16.10;82.10;;;;;;5063820;28;20186;-70
2023/07/27 08:39:00;;;;;;;22.37;11.77;;;16.10;81.80;;;;;;5072081;28;20202;-68
2023/07/27 08:41:29;;;;;;;19.20;9.40;;;16.00;81.70;;;;;;5066500;28;20675;-72
2023/07/27 08:43:57;;;;;;;18.63;10.07;;;16.00;81.60;;;;;;5073138;28;20218;-75
2023/07/27 08:46:25;;;;;;;18.50;7.00;;;16.00;81.30;;;;;;5072722;28;20655;-71
2023/07/27 08:48:53;;;;;;;15.93;8.10;;;16.00;80.90;;;;;;5076200;28;20214;-68
2023/07/27 08:51:21;;;;;;;15.33;7.27;;;15.90;80.90;;;;;;5069297;28;20190;-67
2023/07/27 08:53:48;;;;;;;11.83;6.63;;;15.90;80.80;;;;;;5085649;28;20206;-64
2023/07/27 08:56:16;;;;;;;16.73;7.83;;;15.90;81.10;;;;;;5073829;28;20243;-68
2023/07/27 08:58:44;;;;;;;12.53;7.00;;;15.80;80.90;;;;;;5074061;28;20213;-65
2023/07/27 09:01:11;;;;;;;17.23;7.13;;;15.80;80.90;;;;;;5070956;28;20679;-73
2023/07/27 09:03:42;;;;;;;15.60;7.87;;;15.80;80.70;;;;;;5073959;28;20300;-65
2023/07/27 09:06:09;;;;;;;15.67;7.60;;;15.80;80.70;;;;;;5071858;28;20666;-65
2023/07/27 09:08:37;;;;;;;12.97;8.53;;;15.70;80.60;;;;;;5072143;28;20197;-64
2023/07/27 09:11:09;;;;;;;13.47;6.73;;;15.70;80.70;;;;;;5071643;28;20186;-63
2023/07/27 09:13:37;;;;;;;12.30;6.57;;;15.70;80.40;;;;;;5072824;28;20214;-64
2023/07/27 09:16:06;;;;;;;19.13;6.83;;;15.70;80.00;;;;;;5071775;28;20636;-65
2023/07/27 09:18:37;;;;;;;11.63;6.80;;;15.60;80.00;;;;;;5074037;28;20678;-64
2023/07/27 09:21:09;;;;;;;14.13;6.60;;;15.60;79.70;;;;;;5072180;28;20180;-63
2023/07/27 09:23:37;;;;;;;15.80;6.37;;;15.60;79.60;;;;;;5073302;28;20183;-64
2023/07/27 09:26:05;;;;;;;9.70;6.27;;;15.60;79.00;;;;;;5073651;28;20278;-65
2023/07/27 09:28:34;;;;;;;9.77;6.00;;;15.60;78.80;;;;;;5073724;28;20262;-64
2023/07/27 09:31:03;;;;;;;17.30;6.77;;;15.60;78.70;;;;;;5073265;28;20644;-64
2023/07/27 09:33:30;;;;;;;14.27;6.83;;;15.60;78.20;;;;;;5069915;28;20248;-63
2023/07/27 09:35:58;;;;;;;9.23;6.57;;;15.60;78.00;;;;;;5071970;28;20211;-63
2023/07/27 09:38:28;;;;;;;12.30;6.10;;;15.60;77.70;;;;;;5073988;28;20192;-64
2023/07/27 09:40:56;;;;;;;9.70;5.97;;;15.70;76.90;;;;;;5076140;28;20175;-63
2023/07/27 09:43:24;;;;;;;8.30;4.90;;;15.70;76.60;;;;;;5073343;28;20236;-63
2023/07/27 09:46:00;;;;;;;12.07;5.73;;;15.80;75.70;;;;;;5070225;28;20172;-63
2023/07/27 09:48:28;;;;;;;16.80;5.50;;;15.80;75.50;;;;;;5065320;28;20266;-64
2023/07/27 09:50:57;;;;;;;10.47;5.47;;;15.80;75.60;;;;;;5072109;28;20308;-64
2023/07/27 09:53:26;;;;;;;10.67;6.00;;;15.80;75.70;;;;;;5072438;28;20223;-63
2023/07/27 09:55:53;;;;;;;9.77;5.87;;;15.70;75.60;;;;;;5073515;28;20598;-65
2023/07/27 09:58:21;;;;;;;10.27;5.90;;;15.70;75.80;;;;;;5073511;28;20183;-64
2023/07/27 10:00:48;;;;;;;11.93;5.33;;;15.70;75.80;;;;;;5072910;28;20179;-66
2023/07/27 10:03:16;;;;;;;14.33;5.60;;;15.60;76.00;;;;;;5072341;28;20248;-63
2023/07/27 10:05:44;;;;;;;10.23;5.63;;;15.60;76.00;;;;;;5071438;28;20176;-64
2023/07/27 10:08:12;;;;;;;9.73;5.00;;;15.60;76.00;;;;;;5072553;28;20681;-63
2023/07/27 10:10:42;;;;;;;12.60;5.40;;;15.50;76.00;;;;;;5067790;28;20630;-64
2023/07/27 10:13:30;;;;;;;8.73;4.83;;;15.40;76.10;;;;;;5070600;28;20227;-63
2023/07/27 10:16:01;;;;;;;10.50;5.30;;;15.40;76.00;;;;;;5069254;28;21165;-63
2023/07/27 10:18:31;;;;;;;11.43;5.67;;;15.40;76.10;;;;;;5070977;28;20266;-63
2023/07/27 10:21:22;;;;;;;9.63;5.03;;;15.30;76.00;;;;;;5072455;28;20183;-63
2023/07/27 10:24:00;;;;;;;11.83;5.03;;;15.30;76.00;;;;;;5069997;28;20324;-64
2023/07/27 10:26:51;;;;;;;15.43;6.20;;;15.30;75.70;;;;;;5070513;28;20171;-64
2023/07/27 10:29:23;;;;;;;12.63;5.93;;;15.30;75.70;;;;;;5068388;28;20180;-65
2023/07/27 10:32:07;;;;;;;9.27;5.40;;;15.30;75.80;;;;;;5069582;28;20240;-64
2023/07/27 10:34:36;;;;;;;8.50;4.63;;;15.30;75.60;;;;;;5068075;28;20543;-65
2023/07/27 10:37:08;;;;;;;8.40;4.20;;;15.30;75.60;;;;;;5070101;28;20316;-65
2023/07/27 10:39:35;;;;;;;11.63;4.70;;;15.30;75.60;;;;;;5071140;28;20566;-63
2023/07/27 10:42:04;;;;;;;9.30;4.50;;;15.30;75.60;;;;;;5069755;28;20189;-65
2023/07/27 10:44:50;;;;;;;9.20;4.80;;;15.30;75.60;;;;;;5068631;28;20188;-63
2023/07/27 10:47:30;;;;;;;10.90;4.77;;;15.20;75.80;;;;;;5072400;28;20183;-64
2023/07/27 10:49:59;;;;;;;9.40;4.83;;;15.20;75.90;;;;;;5072248;28;20186;-63
2023/07/27 10:52:36;;;;;;;10.50;5.27;;;15.20;75.80;;;;;;5066392;28;20199;-63
2023/07/27 10:55:06;;;;;;;7.70;4.53;;;15.10;75.80;;;;;;5070994;28;20589;-64
2023/07/27 10:57:34;;;;;;;8.17;4.30;;;15.20;76.10;;;;;;5072397;28;20534;-64
2023/07/27 11:00:04;;;;;;;9.00;5.27;;;15.10;75.90;;;;;;5071084;28;20176;-63
2023/07/27 11:02:32;;;;;;;9.23;5.00;;;15.00;75.90;;;;;;5072363;28;20273;-63
2023/07/27 11:05:01;;;;;;;12.80;5.43;;;15.00;76.10;;;;;;5072341;28;20565;-63
2023/07/27 11:07:34;;;;;;;9.77;4.50;;;15.00;76.20;;;;;;5065899;28;20547;-63
2023/07/27 11:10:09;;;;;;;8.40;4.70;;;14.90;76.50;;;;;;5071281;28;20183;-64
2023/07/27 11:12:54;;;;;;;15.67;4.73;;;14.90;76.40;;;;;;5072000;28;20214;-65
2023/07/27 11:15:27;;;;;;;10.83;5.53;;;14.90;76.40;;;;;;5068841;28;20268;-65
2023/07/27 11:17:56;;;;;;;7.67;4.40;;;15.00;76.00;;;;;;5070765;28;20637;-64
2023/07/27 11:20:26;;;;;;;10.40;5.47;;;14.90;76.00;;;;;;5072235;28;20246;-63
2023/07/27 11:22:57;;;;;;;9.03;5.20;;;14.90;76.20;;;;;;5067995;28;20196;-66
2023/07/27 11:25:25;;;;;;;8.40;5.00;;;14.80;76.00;;;;;;5069062;28;21469;-64
2023/07/27 11:27:54;;;;;;;11.73;5.33;;;14.80;76.20;;;;;;5071556;28;20229;-63
2023/07/27 11:30:24;;;;;;;8.00;4.57;;;14.80;76.40;;;;;;5071575;28;20275;-70
2023/07/27 11:33:04;;;;;;;8.70;5.00;;;14.70;76.60;;;;;;5068712;28;20245;-68
2023/07/27 11:35:44;;;;;;;9.13;5.30;;;14.70;76.80;;;;;;5069337;28;20195;-64
2023/07/27 11:38:11;;;;;;;14.97;6.17;;;14.60;76.90;;;;;;5075116;28;20195;-64
2023/07/27 11:40:47;;;;;;;8.07;5.53;;;14.50;77.20;;;;;;5071780;28;20187;-64
2023/07/27 11:43:15;;;;;;;9.73;5.40;;;14.40;77.50;;;;;;5071437;28;20190;-64
2023/07/27 11:45:42;;;;;;;10.57;5.77;;;14.30;77.80;;;;;;5071289;28;20853;-63
2023/07/27 11:48:10;;;;;;;8.50;5.77;;;14.20;78.20;;;;;;5071337;28;20675;-64
2023/07/27 11:50:40;;;;;;;8.73;5.83;;;14.20;78.20;;;;;;5071491;28;20217;-64
2023/07/27 11:53:11;;;;;;;9.97;6.00;;;14.00;78.60;;;;;;5067913;28;20238;-64
2023/07/27 11:55:38;;;;;;;9.43;6.63;;;14.00;79.30;;;;;;5072427;28;20180;-64
2023/07/27 11:58:09;;;;;;;11.53;5.40;;;13.90;79.70;;;;;;5071225;28;20183;-64
2023/07/27 12:00:39;;;;;;;8.37;6.10;;;13.80;79.80;;;;;;5071638;28;20274;-63
2023/07/27 12:03:07;;;;;;;13.17;5.33;;;13.80;80.00;;;;;;5070948;28;20642;-64
2023/07/27 12:05:34;;;;;;;8.67;5.23;;;13.80;80.40;;;;;;5071379;28;20167;-64
2023/07/27 12:08:01;;;;;;;8.17;5.40;;;13.80;80.30;;;;;;5070965;28;20191;-64
2023/07/27 12:10:29;;;;;;;10.60;5.73;;;13.80;80.80;;;;;;5068930;28;20183;-64
2023/07/27 12:13:05;;;;;;;12.00;5.97;;;13.80;80.90;;;;;;5071144;28;20211;-63
2023/07/27 12:15:35;;;;;;;7.40;5.50;;;13.80;80.60;;;;;;5068196;28;20240;-64
2023/07/27 12:18:04;;;;;;;10.40;6.33;;;13.70;80.80;;;;;;5069916;28;20218;-64
2023/07/27 12:20:34;;;;;;;9.37;6.20;;;13.60;80.70;;;;;;5071249;28;20676;-63
2023/07/27 12:23:02;;;;;;;12.17;6.10;;;13.60;81.30;;;;;;5068845;28;20202;-63
2023/07/27 12:25:30;;;;;;;7.90;5.20;;;13.60;81.20;;;;;;5067327;28;20266;-64
2023/07/27 12:28:01;;;;;;;10.50;5.80;;;13.50;81.20;;;;;;5066075;28;20690;-63
2023/07/27 12:30:29;;;;;;;10.07;5.43;;;13.50;81.40;;;;;;5070959;28;20210;-64
2023/07/27 12:32:56;;;;;;;8.63;5.10;;;13.50;81.20;;;;;;5068211;28;20306;-64
2023/07/27 12:35:24;;;;;;;7.80;5.60;;;13.40;81.30;;;;;;5071963;28;20266;-65
2023/07/27 12:37:52;;;;;;;9.47;5.77;;;13.40;81.50;;;;;;5073331;28;20195;-64
2023/07/27 12:40:19;;;;;;;7.43;5.53;;;13.40;81.20;;;;;;5074925;28;20179;-64
2023/07/27 12:42:46;;;;;;;9.93;5.17;;;13.40;81.30;;;;;;5071145;28;20219;-64
2023/07/27 12:45:14;;;;;;;8.97;5.93;;;13.30;81.20;;;;;;5071963;28;20174;-64
2023/07/27 12:47:42;;;;;;;8.70;6.30;;;13.30;81.40;;;;;;5077333;28;20190;-67
2023/07/27 12:50:10;;;;;;;6.43;5.03;;;13.40;81.40;;;;;;5073865;28;20180;-67